createdAt,value
2018-09-18T00:00:30.792Z,17.47
2018-09-18T00:02:59.644Z,17.73
2018-09-18T00:05:28.632Z,16.90
2018-09-18T00:07:57.576Z,18.73
2018-09-18T00:10:26.344Z,17.03
2018-09-18T00:12:56.242Z,17.40
2018-09-18T00:15:25.095Z,18.00
2018-09-18T00:17:54.291Z,17.33
2018-09-18T00:20:23.274Z,17.00
2018-09-18T00:22:52.104Z,16.80
2018-09-18T00:25:20.951Z,17.60
2018-09-18T00:27:50.544Z,18.07
2018-09-18T00:30:19.531Z,16.47
2018-09-18T00:32:48.325Z,16.73
2018-09-18T00:35:17.166Z,17.23
2018-09-18T00:37:46.098Z,17.10
2018-09-18T00:40:14.885Z,17.27
2018-09-18T00:42:43.867Z,16.50
2018-09-18T00:45:12.825Z,17.83
2018-09-18T00:47:41.800Z,17.30
2018-09-18T00:50:11.110Z,16.80
2018-09-18T00:52:40.022Z,17.50
2018-09-18T00:55:08.841Z,17.90
2018-09-18T00:57:37.903Z,18.23
2018-09-18T01:00:07.018Z,18.23
2018-09-18T01:02:35.826Z,17.90
2018-09-18T01:05:04.816Z,17.83
2018-09-18T01:07:33.912Z,19.07
2018-09-18T01:10:03.106Z,17.73
2018-09-18T01:12:33.032Z,17.53
2018-09-18T01:15:01.977Z,17.37
2018-09-18T01:17:30.835Z,16.77
2018-09-18T01:19:59.839Z,16.40
2018-09-18T01:22:28.812Z,19.23
2018-09-18T01:24:57.680Z,18.37
2018-09-18T01:27:26.466Z,17.03
2018-09-18T01:29:55.377Z,16.50
2018-09-18T01:32:24.319Z,17.20
2018-09-18T01:34:53.173Z,17.57
2018-09-18T01:37:22.055Z,18.10
2018-09-18T01:39:50.959Z,19.40
2018-09-18T01:42:19.920Z,18.87
2018-09-18T01:44:48.844Z,20.17
2018-09-18T01:47:17.771Z,16.67
2018-09-18T01:49:46.629Z,18.37
2018-09-18T01:52:15.897Z,18.70
2018-09-18T01:54:44.740Z,17.93
2018-09-18T01:57:13.673Z,17.23
2018-09-18T01:59:42.620Z,18.00
2018-09-18T02:02:11.404Z,17.60
2018-09-18T02:04:40.366Z,18.30
2018-09-18T02:07:09.306Z,17.07
2018-09-18T02:09:38.228Z,17.93
2018-09-18T02:12:07.118Z,17.17
2018-09-18T02:14:36.114Z,16.90
2018-09-18T02:17:05.219Z,18.10
2018-09-18T02:19:34.147Z,17.47
2018-09-18T02:22:03.082Z,16.43
2018-09-18T02:24:32.115Z,17.50
2018-09-18T02:27:01.200Z,18.17
2018-09-18T02:29:30.129Z,21.20
2018-09-18T02:31:58.975Z,18.73
2018-09-18T02:34:27.905Z,16.83
2018-09-18T02:36:56.768Z,17.40
2018-09-18T02:39:25.724Z,17.43
2018-09-18T02:41:54.712Z,16.90
2018-09-18T02:44:23.700Z,16.70
2018-09-18T02:46:52.651Z,16.37
2018-09-18T02:49:23.535Z,16.67
2018-09-18T02:51:52.359Z,15.53
2018-09-18T02:54:21.322Z,17.00
2018-09-18T02:56:50.225Z,15.97
2018-09-18T02:59:19.157Z,16.40
2018-09-18T03:01:48.163Z,16.33
2018-09-18T03:04:17.010Z,16.70
2018-09-18T03:06:45.967Z,16.30
2018-09-18T03:09:14.968Z,16.40
2018-09-18T03:11:43.937Z,16.63
2018-09-18T03:14:12.864Z,17.23
2018-09-18T03:16:41.782Z,16.87
2018-09-18T03:19:10.709Z,16.63
2018-09-18T03:21:39.548Z,17.27
2018-09-18T03:24:08.899Z,16.80
2018-09-18T03:26:38.759Z,18.03
2018-09-18T03:29:07.797Z,16.50
2018-09-18T03:31:36.740Z,17.17
2018-09-18T03:34:05.803Z,17.90
2018-09-18T03:36:35.124Z,18.10
2018-09-18T03:39:05.073Z,17.77
2018-09-18T03:41:34.152Z,19.07
2018-09-18T03:44:03.237Z,18.00
2018-09-18T03:46:32.487Z,17.30
2018-09-18T03:49:01.338Z,18.73
2018-09-18T03:51:30.217Z,19.10
2018-09-18T03:54:01.006Z,19.27
2018-09-18T03:56:29.926Z,18.37
2018-09-18T03:58:58.890Z,18.00
2018-09-18T04:01:27.861Z,18.60
2018-09-18T04:03:56.787Z,18.43
2018-09-18T04:06:25.736Z,19.10
2018-09-18T04:08:54.603Z,18.60
2018-09-18T04:11:23.536Z,20.77
2018-09-18T04:13:52.840Z,19.30
2018-09-18T04:16:21.784Z,19.80
2018-09-18T04:18:50.752Z,19.80
2018-09-18T04:21:19.741Z,19.53
2018-09-18T04:23:48.564Z,19.37
2018-09-18T04:26:17.504Z,19.23
2018-09-18T04:28:46.568Z,20.00
2018-09-18T04:31:15.559Z,19.57
2018-09-18T04:33:44.612Z,19.43
2018-09-18T04:36:13.578Z,19.53
2018-09-18T04:38:42.488Z,20.00
2018-09-18T04:41:11.484Z,18.83
2018-09-18T04:43:44.141Z,20.30
2018-09-18T04:46:13.396Z,20.37
2018-09-18T04:48:42.447Z,21.00
2018-09-18T04:51:11.650Z,22.30
2018-09-18T04:53:40.728Z,21.80
2018-09-18T04:56:09.634Z,20.93
2018-09-18T04:58:38.664Z,19.60
2018-09-18T05:01:07.930Z,19.53
2018-09-18T05:03:37.064Z,19.17
2018-09-18T05:06:06.107Z,19.53
2018-09-18T05:08:35.016Z,20.20
2018-09-18T05:11:03.960Z,20.20
2018-09-18T05:13:32.981Z,19.97
2018-09-18T05:16:02.416Z,19.90
2018-09-18T05:35:48.461Z,19.90
2018-09-18T05:38:17.409Z,19.70
2018-09-18T05:40:46.334Z,17.23
2018-09-18T05:43:15.237Z,19.43
2018-09-18T05:45:44.168Z,16.43
2018-09-18T05:48:14.010Z,21.20
2018-09-18T05:50:43.341Z,17.70
2018-09-18T05:53:12.663Z,16.83
2018-09-18T05:55:41.617Z,16.00
2018-09-18T05:58:10.677Z,14.90
2018-09-18T06:00:40.625Z,14.70
2018-09-18T06:03:09.732Z,15.60
2018-09-18T06:05:38.698Z,14.80
2018-09-18T06:08:07.671Z,16.27
2018-09-18T06:10:36.604Z,15.63
2018-09-18T06:13:05.557Z,17.40
2018-09-18T06:15:34.433Z,14.87
2018-09-18T06:18:03.388Z,14.67
2018-09-18T06:20:32.385Z,15.27
2018-09-18T06:23:01.339Z,14.20
2018-09-18T06:25:30.368Z,14.37
2018-09-18T06:27:59.352Z,14.50
2018-09-18T06:30:28.276Z,13.70
2018-09-18T06:32:57.192Z,13.50
2018-09-18T06:35:26.097Z,13.30
2018-09-18T06:37:55.172Z,15.70
2018-09-18T06:40:24.085Z,14.43
2018-09-18T06:42:53.130Z,14.17
2018-09-18T06:45:22.091Z,14.10
2018-09-18T06:47:52.718Z,13.23
2018-09-18T06:50:21.720Z,13.63
2018-09-18T06:52:50.676Z,14.60
2018-09-18T06:55:19.617Z,14.00
2018-09-18T06:57:48.600Z,13.43
2018-09-18T07:00:17.597Z,13.50
2018-09-18T07:02:46.575Z,13.57
2018-09-18T07:05:15.537Z,14.20
2018-09-18T07:07:44.613Z,12.50
2018-09-18T07:10:13.517Z,13.60
2018-09-18T07:12:42.517Z,14.87
2018-09-18T07:15:11.518Z,14.33
2018-09-18T07:17:40.395Z,12.43
2018-09-18T07:20:09.469Z,13.00
2018-09-18T07:22:38.530Z,12.17
2018-09-18T07:25:07.595Z,12.20
2018-09-18T07:27:36.621Z,10.87
2018-09-18T07:30:06.490Z,11.77
2018-09-18T07:32:35.397Z,12.63
2018-09-18T07:35:04.708Z,11.03
2018-09-18T07:37:33.792Z,11.10
2018-09-18T07:40:03.062Z,11.03
2018-09-18T07:42:32.161Z,11.80
2018-09-18T07:45:01.278Z,10.30
2018-09-18T07:47:30.298Z,10.70
2018-09-18T07:49:59.295Z,9.93
2018-09-18T07:52:28.265Z,9.40
2018-09-18T07:54:57.338Z,9.10
2018-09-18T07:57:26.407Z,10.73
2018-09-18T07:59:55.871Z,10.43
2018-09-18T08:02:24.985Z,9.90
2018-09-18T08:04:53.975Z,9.97
2018-09-18T08:07:22.908Z,10.23
2018-09-18T08:09:51.813Z,9.80
2018-09-18T08:12:21.211Z,9.40
2018-09-18T08:14:50.145Z,11.20
2018-09-18T08:17:19.183Z,8.97
2018-09-18T08:19:48.205Z,9.40
2018-09-18T08:22:17.132Z,10.40
2018-09-18T08:24:46.129Z,9.00
2018-09-18T08:27:15.181Z,8.63
2018-09-18T08:29:44.166Z,8.77
2018-09-18T08:32:13.201Z,8.97
2018-09-18T08:34:42.193Z,9.60
2018-09-18T08:37:11.185Z,11.80
2018-09-18T08:39:40.236Z,10.90
2018-09-18T08:42:09.351Z,9.07
2018-09-18T08:44:38.368Z,9.17
2018-09-18T08:47:07.532Z,7.83
2018-09-18T08:49:36.598Z,12.43
2018-09-18T08:52:05.761Z,9.23
2018-09-18T08:54:34.693Z,8.50
2018-09-18T08:57:04.241Z,9.47
2018-09-18T08:59:33.255Z,9.37
2018-09-18T09:02:02.244Z,8.67
2018-09-18T09:04:31.824Z,9.20
2018-09-18T09:07:00.871Z,8.33
2018-09-18T09:09:31.057Z,8.43
2018-09-18T09:12:00.294Z,10.17
2018-09-18T09:14:29.354Z,9.57
2018-09-18T09:16:58.391Z,8.43
2018-09-18T09:19:27.459Z,8.50
2018-09-18T09:21:56.405Z,8.70
2018-09-18T09:24:25.460Z,9.10
2018-09-18T09:26:54.623Z,9.10
2018-09-18T09:29:23.640Z,8.00
2018-09-18T09:31:52.737Z,8.97
2018-09-18T09:34:21.626Z,8.40
2018-09-18T09:36:50.838Z,8.30
2018-09-18T09:39:19.806Z,8.57
2018-09-18T09:41:49.158Z,9.10
2018-09-18T09:44:18.160Z,8.30
2018-09-18T09:46:47.134Z,8.40
2018-09-18T09:49:16.121Z,8.27
2018-09-18T09:51:44.868Z,8.97
2018-09-18T09:54:13.781Z,10.23
2018-09-18T09:56:42.806Z,9.07
2018-09-18T09:59:11.823Z,9.07
2018-09-18T10:01:46.089Z,8.53
2018-09-18T10:04:15.308Z,7.90
2018-09-18T10:06:44.468Z,9.03
2018-09-18T10:09:13.922Z,8.37
2018-09-18T10:11:42.861Z,8.30
2018-09-18T10:14:11.784Z,8.50
2018-09-18T10:16:40.700Z,8.43
2018-09-18T10:19:09.995Z,8.30
2018-09-18T10:21:39.004Z,8.37
2018-09-18T10:24:08.590Z,7.80
2018-09-18T10:26:37.635Z,8.70
2018-09-18T10:29:06.612Z,7.93
2018-09-18T10:31:35.522Z,8.37
2018-09-18T10:34:04.505Z,6.70
2018-09-18T10:36:33.563Z,8.17
2018-09-18T10:39:02.646Z,8.20
2018-09-18T10:41:31.909Z,7.60
2018-09-18T10:44:00.760Z,7.57
2018-09-18T10:46:29.546Z,7.77
2018-09-18T10:48:58.824Z,8.90
2018-09-18T10:51:27.833Z,9.40
2018-09-18T10:53:56.831Z,9.20
2018-09-18T10:56:25.717Z,6.50
2018-09-18T10:58:54.648Z,6.60
2018-09-18T11:01:23.716Z,6.93
2018-09-18T11:03:52.598Z,6.40
2018-09-18T11:06:21.579Z,6.50
2018-09-18T11:08:50.729Z,5.90
2018-09-18T11:11:19.711Z,6.80
2018-09-18T11:13:48.934Z,6.80
2018-09-18T11:16:17.846Z,8.60
2018-09-18T11:18:47.117Z,7.73
2018-09-18T11:21:16.269Z,8.80
2018-09-18T11:23:45.072Z,7.23
2018-09-18T11:26:14.684Z,6.23
2018-09-18T11:28:43.822Z,6.57
2018-09-18T11:31:13.177Z,7.90
2018-09-18T11:33:42.392Z,7.90
2018-09-18T11:36:11.547Z,7.93
2018-09-18T11:38:40.903Z,6.70
2018-09-18T11:41:10.326Z,7.30
2018-09-18T11:43:39.390Z,6.83
2018-09-18T11:46:08.621Z,6.70
2018-09-18T11:48:37.638Z,6.83
2018-09-18T11:51:06.943Z,6.90
2018-09-18T11:53:35.990Z,6.57
2018-09-18T11:56:05.637Z,7.93
2018-09-18T11:58:34.961Z,7.37
2018-09-18T12:01:04.485Z,7.07
2018-09-18T12:03:33.562Z,7.60
2018-09-18T12:06:02.569Z,7.43
2018-09-18T12:08:31.831Z,8.10
2018-09-18T12:11:00.829Z,7.27
2018-09-18T12:13:29.877Z,6.70
2018-09-18T12:15:58.928Z,7.40
2018-09-18T12:18:28.205Z,6.93
2018-09-18T12:20:57.186Z,7.43
2018-09-18T12:23:26.563Z,6.90
2018-09-18T12:25:55.601Z,7.20
2018-09-18T12:28:25.221Z,6.80
2018-09-18T12:30:54.365Z,6.83
2018-09-18T12:33:23.424Z,9.57
2018-09-18T12:35:53.404Z,8.70
2018-09-18T12:38:22.857Z,9.00
2018-09-18T12:40:52.397Z,7.87
2018-09-18T12:43:22.249Z,8.17
2018-09-18T12:45:51.140Z,8.17
2018-09-18T12:48:20.089Z,7.27
2018-09-18T12:50:49.035Z,7.50
2018-09-18T12:53:17.823Z,7.63
2018-09-18T12:55:47.865Z,8.10
2018-09-18T12:58:16.962Z,8.10
2018-09-18T13:00:46.864Z,7.50
2018-09-18T13:03:15.836Z,7.73
2018-09-18T13:05:44.721Z,8.30
2018-09-18T13:08:13.766Z,7.67
2018-09-18T13:10:42.661Z,7.30
2018-09-18T13:13:11.681Z,7.80
2018-09-18T13:15:40.694Z,8.40
2018-09-18T13:18:09.723Z,8.33
2018-09-18T13:20:38.708Z,8.33
2018-09-18T13:23:07.686Z,7.93
2018-09-18T13:25:36.701Z,9.80
2018-09-18T13:28:05.892Z,7.50
2018-09-18T13:30:35.054Z,8.00
2018-09-18T13:33:04.411Z,8.60
2018-09-18T13:35:33.466Z,7.00
2018-09-18T13:38:02.506Z,6.90
2018-09-18T13:40:31.607Z,7.80
2018-09-18T13:43:00.524Z,8.70
2018-09-18T13:45:29.562Z,7.37
2018-09-18T13:47:58.481Z,9.23
2018-09-18T13:50:31.010Z,8.00
2018-09-18T13:53:00.795Z,7.50
2018-09-18T13:55:29.846Z,7.47
2018-09-18T13:57:59.128Z,8.83
2018-09-18T14:00:28.024Z,8.80
2018-09-18T14:02:58.446Z,10.60
2018-09-18T14:05:28.632Z,8.20
2018-09-18T14:07:57.596Z,7.67
2018-09-18T14:10:26.590Z,7.90
2018-09-18T14:12:55.453Z,7.67
2018-09-18T14:15:24.411Z,8.50
2018-09-18T14:17:58.987Z,8.23
2018-09-18T14:20:31.236Z,8.70
2018-09-18T14:23:00.204Z,7.53
2018-09-18T14:25:29.163Z,8.90
2018-09-18T14:27:58.045Z,8.47
2018-09-18T14:30:27.098Z,9.03
2018-09-18T14:32:56.173Z,9.37
2018-09-18T14:35:25.188Z,7.70
2018-09-18T14:37:54.338Z,9.50
2018-09-18T14:40:23.330Z,7.80
2018-09-18T14:42:52.356Z,9.10
2018-09-18T14:45:21.489Z,8.43
2018-09-18T14:47:51.672Z,9.10
2018-09-18T14:50:20.652Z,8.17
2018-09-18T14:52:49.617Z,8.97
2018-09-18T14:55:19.833Z,9.30
2018-09-18T14:57:49.824Z,8.97
2018-09-18T15:00:19.025Z,9.50
2018-09-18T15:02:48.095Z,8.70
2018-09-18T15:05:17.662Z,9.57
2018-09-18T15:07:46.720Z,11.10
2018-09-18T15:10:15.862Z,9.60
2018-09-18T15:12:44.826Z,9.07
2018-09-18T15:15:14.097Z,7.73
2018-09-18T15:17:43.296Z,8.17
2018-09-18T15:20:12.224Z,8.83
2018-09-18T15:22:41.177Z,9.70
2018-09-18T15:25:10.151Z,9.60
2018-09-18T15:27:40.232Z,8.37
2018-09-18T15:30:09.147Z,9.20
2018-09-18T15:32:37.558Z,9.00
2018-09-18T15:35:05.314Z,8.97
2018-09-18T15:37:32.989Z,8.60
2018-09-18T15:40:00.537Z,8.53
2018-09-18T15:42:28.208Z,8.20
2018-09-18T15:44:56.770Z,7.53
2018-09-18T15:47:25.524Z,8.83
2018-09-18T15:49:53.125Z,7.43
2018-09-18T15:52:20.773Z,8.30
2018-09-18T15:54:48.384Z,9.00
2018-09-18T15:57:16.010Z,9.80
2018-09-18T15:59:43.588Z,9.13
2018-09-18T16:02:11.323Z,7.80
2018-09-18T16:04:38.845Z,7.77
2018-09-18T16:07:06.522Z,7.83
2018-09-18T16:09:34.319Z,7.93
2018-09-18T16:12:02.864Z,8.70
2018-09-18T16:14:31.552Z,8.67
2018-09-18T16:16:59.174Z,7.97
2018-09-18T16:19:26.864Z,8.10
2018-09-18T16:24:26.897Z,8.00
2018-09-18T16:26:54.874Z,7.70
2018-09-18T16:29:23.196Z,9.60
2018-09-18T16:31:52.133Z,10.20
2018-09-18T16:34:21.291Z,8.23
2018-09-18T16:36:50.703Z,8.50
2018-09-18T16:39:19.694Z,8.97
2018-09-18T16:41:48.585Z,8.70
2018-09-18T16:44:17.668Z,8.73
2018-09-18T16:46:46.678Z,9.10
2018-09-18T16:49:15.726Z,7.67
2018-09-18T16:51:44.767Z,8.03
2018-09-18T16:54:13.782Z,8.43
2018-09-18T16:56:42.853Z,8.83
2018-09-18T16:59:11.949Z,9.83
2018-09-18T17:01:40.899Z,8.20
2018-09-18T17:04:09.847Z,8.30
2018-09-18T17:06:38.871Z,9.10
2018-09-18T17:09:08.420Z,9.17
2018-09-18T17:11:37.848Z,9.60
2018-09-18T17:14:07.110Z,8.60
2018-09-18T17:16:36.725Z,9.60
2018-09-18T17:19:05.834Z,7.73
2018-09-18T17:21:34.856Z,8.30
2018-09-18T17:24:04.013Z,7.80
2018-09-18T17:26:33.050Z,8.30
2018-09-18T17:29:02.511Z,7.33
2018-09-18T17:31:31.449Z,7.13
2018-09-18T17:34:00.544Z,6.13
2018-09-18T17:36:29.686Z,7.77
2018-09-18T17:38:58.678Z,6.50
2018-09-18T17:41:27.599Z,6.87
2018-09-18T17:43:56.530Z,5.27
2018-09-18T17:46:25.463Z,5.90
2018-09-18T17:48:54.680Z,5.30
2018-09-18T17:51:24.557Z,5.83
2018-09-18T17:53:53.780Z,5.37
2018-09-18T17:56:23.140Z,5.60
2018-09-18T17:58:52.014Z,4.90
2018-09-18T18:01:24.119Z,5.23
2018-09-18T18:03:53.032Z,5.50
2018-09-18T18:06:28.150Z,4.97
2018-09-18T18:08:57.157Z,4.77
2018-09-18T18:11:26.270Z,5.97
2018-09-18T18:13:55.448Z,5.70
2018-09-18T18:16:24.407Z,5.70
2018-09-18T18:18:53.544Z,5.10
2018-09-18T18:21:22.675Z,5.23
2018-09-18T18:23:51.518Z,6.90
2018-09-18T18:26:20.523Z,6.07
2018-09-18T18:28:49.454Z,5.43
2018-09-18T18:31:18.495Z,5.50
2018-09-18T18:33:47.991Z,4.50
2018-09-18T18:36:17.105Z,4.13
2018-09-18T18:38:46.183Z,3.20
2018-09-18T18:41:15.344Z,4.00
2018-09-18T18:43:49.980Z,3.40
2018-09-18T18:46:18.994Z,3.63
2018-09-18T18:48:48.054Z,3.67
2018-09-18T18:51:17.293Z,4.57
2018-09-18T18:53:46.327Z,4.00
2018-09-18T18:56:15.433Z,3.20
2018-09-18T18:58:44.904Z,4.40
2018-09-18T19:01:14.103Z,3.87
2018-09-18T19:03:43.698Z,3.30
2018-09-18T19:06:12.897Z,3.00
2018-09-18T19:08:42.032Z,3.40
2018-09-18T19:11:11.134Z,3.00
2018-09-18T19:13:40.448Z,3.50
2018-09-18T19:16:09.591Z,3.50
2018-09-18T19:18:38.691Z,2.70
2018-09-18T19:21:08.283Z,3.23
2018-09-18T19:23:41.172Z,3.17
2018-09-18T19:26:10.227Z,3.80
2018-09-18T19:28:39.297Z,2.70
2018-09-18T19:31:12.226Z,3.20
2018-09-18T19:33:41.817Z,2.80
2018-09-18T19:36:10.858Z,2.60
2018-09-18T19:38:39.828Z,2.40
2018-09-18T19:41:08.990Z,2.87
2018-09-18T19:43:37.897Z,2.87
2018-09-18T19:46:06.915Z,2.20
2018-09-18T19:48:35.927Z,3.50
2018-09-18T19:51:05.377Z,2.90
2018-09-18T19:53:34.374Z,3.00
2018-09-18T19:56:03.247Z,2.73
2018-09-18T19:58:32.256Z,2.93
2018-09-18T20:01:01.756Z,3.00
2018-09-18T20:03:30.969Z,2.53
2018-09-18T20:06:00.211Z,2.97
2018-09-18T20:08:29.509Z,2.80
2018-09-18T20:10:58.585Z,2.40
2018-09-18T20:13:27.758Z,3.10
2018-09-18T20:15:56.755Z,2.20
2018-09-18T20:18:25.775Z,3.00
2018-09-18T20:20:55.074Z,2.50
2018-09-18T20:23:24.096Z,2.50
2018-09-18T20:25:53.340Z,2.33
2018-09-18T20:28:22.337Z,2.23
2018-09-18T20:30:51.422Z,1.93
2018-09-18T20:33:20.677Z,2.47
2018-09-18T20:35:49.745Z,2.20
2018-09-18T20:38:18.722Z,1.87
2018-09-18T20:40:47.651Z,2.40
2018-09-18T20:43:17.089Z,1.70
2018-09-18T20:45:45.988Z,2.30
2018-09-18T20:48:14.866Z,2.60
2018-09-18T20:50:43.810Z,2.37
2018-09-18T20:53:12.751Z,1.93
2018-09-18T20:55:47.200Z,2.40
2018-09-18T20:58:16.438Z,2.40
2018-09-18T21:00:47.359Z,2.90
2018-09-18T21:03:16.655Z,2.20
2018-09-18T21:05:45.778Z,2.60
2018-09-18T21:08:14.940Z,2.07
2018-09-18T21:10:44.029Z,2.40
2018-09-18T21:13:13.055Z,2.00
2018-09-18T21:15:43.183Z,2.53
2018-09-18T21:18:12.165Z,2.57
2018-09-18T21:20:41.186Z,2.40
2018-09-18T21:23:10.432Z,1.97
2018-09-18T21:26:11.945Z,2.10
2018-09-18T21:28:40.912Z,2.00
2018-09-18T21:31:10.095Z,1.70
2018-09-18T21:33:40.293Z,2.00
2018-09-18T21:36:09.249Z,2.37
2018-09-18T21:38:38.213Z,1.83
2018-09-18T21:41:07.621Z,2.23
2018-09-18T21:43:36.594Z,1.90
2018-09-18T21:46:06.616Z,1.83
2018-09-18T21:48:35.616Z,2.10
2018-09-18T21:51:04.919Z,2.03
2018-09-18T21:53:34.057Z,2.37
2018-09-18T21:56:03.039Z,2.13
2018-09-18T21:58:32.108Z,1.97
2018-09-18T22:01:04.919Z,2.07
2018-09-18T22:03:34.482Z,1.90
2018-09-18T22:06:03.943Z,2.07
2018-09-18T22:08:32.875Z,3.10
2018-09-18T22:11:01.833Z,2.20
2018-09-18T22:13:30.789Z,2.23
2018-09-18T22:15:59.735Z,2.30
2018-09-18T22:18:28.734Z,2.30
2018-09-18T22:20:57.641Z,1.90
2018-09-18T22:23:26.679Z,1.93
2018-09-18T22:25:55.721Z,2.13
2018-09-18T22:28:24.811Z,2.30
2018-09-18T22:30:53.768Z,2.17
2018-09-18T22:33:22.886Z,2.17
2018-09-18T22:35:51.840Z,2.23
2018-09-18T22:38:20.715Z,2.00
2018-09-18T22:40:49.625Z,2.00
2018-09-18T22:43:18.496Z,1.80
2018-09-18T22:45:47.537Z,2.10
2018-09-18T22:48:16.404Z,2.10
2018-09-18T22:50:46.108Z,2.73
2018-09-18T22:53:15.107Z,2.10
2018-09-18T22:55:43.986Z,2.23
2018-09-18T22:58:12.866Z,1.80
2018-09-18T23:00:41.808Z,2.23
2018-09-18T23:03:10.790Z,2.77
2018-09-18T23:05:39.654Z,2.63
2018-09-18T23:08:08.803Z,2.60
2018-09-18T23:10:37.749Z,1.77
2018-09-18T23:13:06.620Z,2.40
2018-09-18T23:15:35.491Z,1.87
2018-09-18T23:18:04.501Z,1.70
2018-09-18T23:20:33.374Z,2.03
2018-09-18T23:23:02.254Z,2.43
2018-09-18T23:25:31.149Z,2.10
2018-09-18T23:28:00.446Z,2.20
2018-09-18T23:30:29.346Z,2.00
2018-09-18T23:32:58.180Z,2.30
2018-09-18T23:35:27.122Z,2.20
2018-09-18T23:37:56.018Z,2.47
2018-09-18T23:40:24.936Z,2.33
2018-09-18T23:42:53.775Z,2.23
2018-09-18T23:45:22.637Z,2.80
2018-09-18T23:47:51.482Z,2.20
2018-09-18T23:50:20.365Z,2.53
2018-09-18T23:52:49.400Z,3.17
2018-09-18T23:55:18.301Z,2.60
2018-09-18T23:57:47.131Z,2.77
